sensor_id;sensor_type;location;lat;lon;timestamp;P1;durP1;ratioP1;P2;durP2;ratioP2
27847;SDS011;15212;48.830;8.730;2023-04-24T00:02:17;4.50;;;1.30;;
27847;SDS011;15212;48.830;8.730;2023-04-24T00:04:46;2.47;;;0.95;;
27847;SDS011;15212;48.830;8.730;2023-04-24T00:07:14;2.17;;;1.00;;
27847;SDS011;15212;48.830;8.730;2023-04-24T00:09:43;2.42;;;0.80;;
27847;SDS011;15212;48.830;8.730;2023-04-24T00:12:11;3.12;;;0.98;;
27847;SDS011;15212;48.830;8.730;2023-04-24T00:14:40;2.42;;;1.02;;
27847;SDS011;15212;48.830;8.730;2023-04-24T00:17:08;3.58;;;1.10;;
27847;SDS011;15212;48.830;8.730;2023-04-24T00:19:36;2.22;;;1.00;;
27847;SDS011;15212;48.830;8.730;2023-04-24T00:22:05;2.17;;;1.10;;
27847;SDS011;15212;48.830;8.730;2023-04-24T00:24:34;1.15;;;0.90;;
27847;SDS011;15212;48.830;8.730;2023-04-24T00:27:02;3.83;;;1.12;;
27847;SDS011;15212;48.830;8.730;2023-04-24T00:29:30;2.05;;;1.50;;
27847;SDS011;15212;48.830;8.730;2023-04-24T00:31:59;3.50;;;1.00;;
27847;SDS011;15212;48.830;8.730;2023-04-24T00:34:27;1.87;;;1.10;;
27847;SDS011;15212;48.830;8.730;2023-04-24T00:36:56;1.60;;;1.00;;
27847;SDS011;15212;48.830;8.730;2023-04-24T00:39:24;2.45;;;1.00;;
27847;SDS011;15212;48.830;8.730;2023-04-24T00:41:52;2.50;;;1.00;;
27847;SDS011;15212;48.830;8.730;2023-04-24T00:44:22;3.22;;;1.20;;
27847;SDS011;15212;48.830;8.730;2023-04-24T00:46:51;3.02;;;1.10;;
27847;SDS011;15212;48.830;8.730;2023-04-24T00:49:25;4.28;;;1.17;;
27847;SDS011;15212;48.830;8.730;2023-04-24T00:51:50;2.72;;;1.12;;
27847;SDS011;15212;48.830;8.730;2023-04-24T00:54:19;3.27;;;1.10;;
27847;SDS011;15212;48.830;8.730;2023-04-24T00:56:48;2.70;;;1.20;;
27847;SDS011;15212;48.830;8.730;2023-04-24T00:59:17;2.20;;;1.00;;
27847;SDS011;15212;48.830;8.730;2023-04-24T01:01:45;3.65;;;1.20;;
27847;SDS011;15212;48.830;8.730;2023-04-24T01:04:14;1.98;;;0.93;;
27847;SDS011;15212;48.830;8.730;2023-04-24T01:06:46;4.53;;;1.15;;
27847;SDS011;15212;48.830;8.730;2023-04-24T01:09:16;1.87;;;1.05;;
27847;SDS011;15212;48.830;8.730;2023-04-24T01:11:45;2.27;;;0.90;;
27847;SDS011;15212;48.830;8.730;2023-04-24T01:14:14;2.05;;;1.17;;
27847;SDS011;15212;48.830;8.730;2023-04-24T01:16:42;1.95;;;0.88;;
27847;SDS011;15212;48.830;8.730;2023-04-24T01:19:11;1.20;;;0.90;;
27847;SDS011;15212;48.830;8.730;2023-04-24T01:21:40;1.98;;;1.02;;
27847;SDS011;15212;48.830;8.730;2023-04-24T01:24:10;4.80;;;0.98;;
27847;SDS011;15212;48.830;8.730;2023-04-24T01:26:40;2.55;;;0.85;;
27847;SDS011;15212;48.830;8.730;2023-04-24T01:29:09;5.95;;;0.90;;
27847;SDS011;15212;48.830;8.730;2023-04-24T01:31:37;2.58;;;0.98;;
27847;SDS011;15212;48.830;8.730;2023-04-24T01:34:07;3.40;;;0.90;;
27847;SDS011;15212;48.830;8.730;2023-04-24T01:36:35;3.85;;;0.90;;
27847;SDS011;15212;48.830;8.730;2023-04-24T01:39:04;7.85;;;1.00;;
27847;SDS011;15212;48.830;8.730;2023-04-24T01:41:33;1.87;;;0.80;;
27847;SDS011;15212;48.830;8.730;2023-04-24T01:44:01;2.92;;;1.00;;
27847;SDS011;15212;48.830;8.730;2023-04-24T01:46:30;2.67;;;1.00;;
27847;SDS011;15212;48.830;8.730;2023-04-24T01:49:00;2.75;;;0.88;;
27847;SDS011;15212;48.830;8.730;2023-04-24T01:51:29;1.77;;;0.82;;
27847;SDS011;15212;48.830;8.730;2023-04-24T01:53:58;1.62;;;0.90;;
27847;SDS011;15212;48.830;8.730;2023-04-24T01:56:28;2.25;;;0.90;;
27847;SDS011;15212;48.830;8.730;2023-04-24T01:58:57;1.92;;;0.80;;
27847;SDS011;15212;48.830;8.730;2023-04-24T02:01:26;1.80;;;1.00;;
27847;SDS011;15212;48.830;8.730;2023-04-24T02:03:56;2.55;;;0.90;;
27847;SDS011;15212;48.830;8.730;2023-04-24T02:06:25;2.22;;;0.82;;
27847;SDS011;15212;48.830;8.730;2023-04-24T02:08:53;2.22;;;0.90;;
27847;SDS011;15212;48.830;8.730;2023-04-24T02:11:22;3.75;;;1.00;;
27847;SDS011;15212;48.830;8.730;2023-04-24T02:13:50;2.75;;;1.17;;
27847;SDS011;15212;48.830;8.730;2023-04-24T02:16:19;4.15;;;1.25;;
27847;SDS011;15212;48.830;8.730;2023-04-24T02:18:47;1.00;;;0.88;;
27847;SDS011;15212;48.830;8.730;2023-04-24T02:21:16;3.62;;;1.10;;
27847;SDS011;15212;48.830;8.730;2023-04-24T02:23:44;4.35;;;1.15;;
27847;SDS011;15212;48.830;8.730;2023-04-24T02:26:13;2.67;;;0.88;;
27847;SDS011;15212;48.830;8.730;2023-04-24T02:28:42;3.70;;;1.30;;
27847;SDS011;15212;48.830;8.730;2023-04-24T02:31:10;3.70;;;1.22;;
27847;SDS011;15212;48.830;8.730;2023-04-24T02:33:38;2.75;;;1.10;;
27847;SDS011;15212;48.830;8.730;2023-04-24T02:36:07;1.50;;;0.82;;
27847;SDS011;15212;48.830;8.730;2023-04-24T02:38:35;6.62;;;1.00;;
27847;SDS011;15212;48.830;8.730;2023-04-24T02:41:04;3.72;;;1.10;;
27847;SDS011;15212;48.830;8.730;2023-04-24T02:43:32;4.92;;;1.30;;
27847;SDS011;15212;48.830;8.730;2023-04-24T02:46:01;3.12;;;1.20;;
27847;SDS011;15212;48.830;8.730;2023-04-24T02:48:29;2.62;;;1.50;;
27847;SDS011;15212;48.830;8.730;2023-04-24T02:50:57;2.50;;;1.00;;
27847;SDS011;15212;48.830;8.730;2023-04-24T02:53:26;2.05;;;1.15;;
27847;SDS011;15212;48.830;8.730;2023-04-24T02:55:56;3.10;;;1.07;;
27847;SDS011;15212;48.830;8.730;2023-04-24T02:58:24;2.80;;;1.20;;
27847;SDS011;15212;48.830;8.730;2023-04-24T03:00:53;3.77;;;1.30;;
27847;SDS011;15212;48.830;8.730;2023-04-24T03:03:23;4.28;;;1.40;;
27847;SDS011;15212;48.830;8.730;2023-04-24T03:05:51;1.92;;;1.17;;
27847;SDS011;15212;48.830;8.730;2023-04-24T03:08:21;2.15;;;1.20;;
27847;SDS011;15212;48.830;8.730;2023-04-24T03:10:49;4.20;;;1.82;;
27847;SDS011;15212;48.830;8.730;2023-04-24T03:13:18;4.37;;;1.27;;
27847;SDS011;15212;48.830;8.730;2023-04-24T03:15:46;2.45;;;1.30;;
27847;SDS011;15212;48.830;8.730;2023-04-24T03:18:14;4.67;;;1.50;;
27847;SDS011;15212;48.830;8.730;2023-04-24T03:20:45;3.45;;;1.50;;
27847;SDS011;15212;48.830;8.730;2023-04-24T03:23:14;5.10;;;1.50;;
27847;SDS011;15212;48.830;8.730;2023-04-24T03:25:42;2.22;;;1.40;;
27847;SDS011;15212;48.830;8.730;2023-04-24T03:28:11;2.92;;;1.25;;
27847;SDS011;15212;48.830;8.730;2023-04-24T03:30:39;4.47;;;1.40;;
27847;SDS011;15212;48.830;8.730;2023-04-24T03:33:08;2.85;;;1.30;;
27847;SDS011;15212;48.830;8.730;2023-04-24T03:35:36;3.67;;;1.70;;
27847;SDS011;15212;48.830;8.730;2023-04-24T03:38:04;2.75;;;1.40;;
27847;SDS011;15212;48.830;8.730;2023-04-24T03:40:33;2.22;;;1.25;;
27847;SDS011;15212;48.830;8.730;2023-04-24T03:43:01;6.12;;;1.50;;
27847;SDS011;15212;48.830;8.730;2023-04-24T03:45:29;3.60;;;1.57;;
27847;SDS011;15212;48.830;8.730;2023-04-24T03:47:58;2.87;;;1.05;;
27847;SDS011;15212;48.830;8.730;2023-04-24T03:50:28;3.47;;;1.05;;
27847;SDS011;15212;48.830;8.730;2023-04-24T03:52:56;2.00;;;1.32;;
27847;SDS011;15212;48.830;8.730;2023-04-24T03:55:24;4.33;;;1.27;;
27847;SDS011;15212;48.830;8.730;2023-04-24T03:57:53;2.27;;;1.10;;
27847;SDS011;15212;48.830;8.730;2023-04-24T04:00:21;4.87;;;1.40;;
27847;SDS011;15212;48.830;8.730;2023-04-24T04:02:50;3.58;;;1.27;;
27847;SDS011;15212;48.830;8.730;2023-04-24T04:05:18;2.10;;;1.35;;
27847;SDS011;15212;48.830;8.730;2023-04-24T04:07:47;4.65;;;1.30;;
27847;SDS011;15212;48.830;8.730;2023-04-24T04:10:15;1.60;;;1.20;;
27847;SDS011;15212;48.830;8.730;2023-04-24T04:12:43;2.83;;;1.47;;
27847;SDS011;15212;48.830;8.730;2023-04-24T04:15:12;2.00;;;1.40;;
27847;SDS011;15212;48.830;8.730;2023-04-24T04:17:40;1.62;;;1.20;;
27847;SDS011;15212;48.830;8.730;2023-04-24T04:20:09;9.23;;;1.55;;
27847;SDS011;15212;48.830;8.730;2023-04-24T04:22:37;2.45;;;1.55;;
27847;SDS011;15212;48.830;8.730;2023-04-24T04:25:06;2.87;;;1.65;;
27847;SDS011;15212;48.830;8.730;2023-04-24T04:27:34;1.85;;;1.45;;
27847;SDS011;15212;48.830;8.730;2023-04-24T04:30:03;1.95;;;1.50;;
27847;SDS011;15212;48.830;8.730;2023-04-24T04:32:32;3.22;;;1.42;;
27847;SDS011;15212;48.830;8.730;2023-04-24T04:35:01;10.68;;;1.82;;
27847;SDS011;15212;48.830;8.730;2023-04-24T04:37:31;2.15;;;1.70;;
27847;SDS011;15212;48.830;8.730;2023-04-24T04:40:00;2.70;;;1.60;;
27847;SDS011;15212;48.830;8.730;2023-04-24T04:42:32;3.45;;;2.10;;
27847;SDS011;15212;48.830;8.730;2023-04-24T04:45:01;3.70;;;2.10;;
27847;SDS011;15212;48.830;8.730;2023-04-24T04:47:30;7.00;;;2.00;;
27847;SDS011;15212;48.830;8.730;2023-04-24T04:49:58;2.72;;;2.00;;
27847;SDS011;15212;48.830;8.730;2023-04-24T04:52:27;2.72;;;2.17;;
27847;SDS011;15212;48.830;8.730;2023-04-24T04:54:55;5.60;;;2.15;;
27847;SDS011;15212;48.830;8.730;2023-04-24T04:57:23;4.42;;;2.25;;
27847;SDS011;15212;48.830;8.730;2023-04-24T04:59:52;3.25;;;2.30;;
27847;SDS011;15212;48.830;8.730;2023-04-24T05:02:20;3.85;;;2.37;;
27847;SDS011;15212;48.830;8.730;2023-04-24T05:04:49;3.27;;;2.60;;
27847;SDS011;15212;48.830;8.730;2023-04-24T05:07:17;4.42;;;2.83;;
27847;SDS011;15212;48.830;8.730;2023-04-24T05:09:46;4.50;;;2.70;;
27847;SDS011;15212;48.830;8.730;2023-04-24T05:12:14;3.47;;;2.72;;
27847;SDS011;15212;48.830;8.730;2023-04-24T05:14:42;5.20;;;3.25;;
27847;SDS011;15212;48.830;8.730;2023-04-24T05:17:11;4.60;;;3.10;;
27847;SDS011;15212;48.830;8.730;2023-04-24T05:19:39;6.58;;;2.98;;
27847;SDS011;15212;48.830;8.730;2023-04-24T05:22:08;5.58;;;2.80;;
27847;SDS011;15212;48.830;8.730;2023-04-24T05:24:37;3.85;;;2.90;;
27847;SDS011;15212;48.830;8.730;2023-04-24T05:27:05;5.28;;;3.27;;
27847;SDS011;15212;48.830;8.730;2023-04-24T05:29:34;4.17;;;3.10;;
27847;SDS011;15212;48.830;8.730;2023-04-24T05:32:02;4.20;;;3.02;;
27847;SDS011;15212;48.830;8.730;2023-04-24T05:34:31;5.33;;;2.83;;
27847;SDS011;15212;48.830;8.730;2023-04-24T05:36:59;5.25;;;2.80;;
27847;SDS011;15212;48.830;8.730;2023-04-24T05:39:28;4.25;;;2.75;;
27847;SDS011;15212;48.830;8.730;2023-04-24T05:41:57;11.78;;;5.55;;
27847;SDS011;15212;48.830;8.730;2023-04-24T05:44:27;8.80;;;4.80;;
27847;SDS011;15212;48.830;8.730;2023-04-24T05:46:55;6.03;;;2.62;;
27847;SDS011;15212;48.830;8.730;2023-04-24T05:49:24;4.00;;;2.30;;
27847;SDS011;15212;48.830;8.730;2023-04-24T05:51:52;3.67;;;2.10;;
27847;SDS011;15212;48.830;8.730;2023-04-24T05:54:21;5.28;;;2.37;;
27847;SDS011;15212;48.830;8.730;2023-04-24T05:56:49;6.10;;;2.72;;
27847;SDS011;15212;48.830;8.730;2023-04-24T05:59:17;3.15;;;2.08;;
27847;SDS011;15212;48.830;8.730;2023-04-24T06:01:46;6.37;;;2.45;;
27847;SDS011;15212;48.830;8.730;2023-04-24T06:04:14;5.87;;;2.52;;
27847;SDS011;15212;48.830;8.730;2023-04-24T06:06:43;3.27;;;2.27;;
27847;SDS011;15212;48.830;8.730;2023-04-24T06:09:11;4.65;;;2.60;;
27847;SDS011;15212;48.830;8.730;2023-04-24T06:11:40;3.10;;;2.35;;
27847;SDS011;15212;48.830;8.730;2023-04-24T06:14:08;3.47;;;2.33;;
27847;SDS011;15212;48.830;8.730;2023-04-24T06:16:37;4.47;;;2.83;;
27847;SDS011;15212;48.830;8.730;2023-04-24T06:19:07;3.42;;;2.10;;
27847;SDS011;15212;48.830;8.730;2023-04-24T06:21:35;3.90;;;2.25;;
27847;SDS011;15212;48.830;8.730;2023-04-24T06:24:03;5.37;;;2.47;;
27847;SDS011;15212;48.830;8.730;2023-04-24T06:26:32;6.08;;;2.40;;
27847;SDS011;15212;48.830;8.730;2023-04-24T06:29:00;5.70;;;2.20;;
27847;SDS011;15212;48.830;8.730;2023-04-24T06:31:29;4.00;;;1.62;;
27847;SDS011;15212;48.830;8.730;2023-04-24T06:33:59;2.20;;;1.77;;
27847;SDS011;15212;48.830;8.730;2023-04-24T06:36:27;2.20;;;1.80;;
27847;SDS011;15212;48.830;8.730;2023-04-24T06:38:57;2.90;;;2.00;;
27847;SDS011;15212;48.830;8.730;2023-04-24T06:41:25;2.55;;;1.95;;
27847;SDS011;15212;48.830;8.730;2023-04-24T06:43:55;3.80;;;2.12;;
27847;SDS011;15212;48.830;8.730;2023-04-24T06:46:23;4.03;;;1.87;;
27847;SDS011;15212;48.830;8.730;2023-04-24T06:48:53;3.72;;;2.10;;
27847;SDS011;15212;48.830;8.730;2023-04-24T06:51:27;3.83;;;2.10;;
27847;SDS011;15212;48.830;8.730;2023-04-24T06:53:53;2.67;;;1.87;;
27847;SDS011;15212;48.830;8.730;2023-04-24T06:56:24;6.65;;;2.08;;
27847;SDS011;15212;48.830;8.730;2023-04-24T06:58:54;3.27;;;2.27;;
27847;SDS011;15212;48.830;8.730;2023-04-24T07:01:23;7.22;;;3.10;;
27847;SDS011;15212;48.830;8.730;2023-04-24T07:03:51;3.40;;;2.17;;
27847;SDS011;15212;48.830;8.730;2023-04-24T07:06:20;4.08;;;2.33;;
27847;SDS011;15212;48.830;8.730;2023-04-24T07:08:50;4.47;;;2.33;;
27847;SDS011;15212;48.830;8.730;2023-04-24T07:11:18;3.52;;;1.90;;
27847;SDS011;15212;48.830;8.730;2023-04-24T07:13:47;5.33;;;2.37;;
27847;SDS011;15212;48.830;8.730;2023-04-24T07:16:16;4.78;;;1.90;;
27847;SDS011;15212;48.830;8.730;2023-04-24T07:18:44;3.83;;;2.30;;
27847;SDS011;15212;48.830;8.730;2023-04-24T07:21:13;3.50;;;2.05;;
27847;SDS011;15212;48.830;8.730;2023-04-24T07:23:41;4.50;;;2.17;;
27847;SDS011;15212;48.830;8.730;2023-04-24T07:26:09;7.20;;;1.85;;
27847;SDS011;15212;48.830;8.730;2023-04-24T07:28:38;3.00;;;1.77;;
27847;SDS011;15212;48.830;8.730;2023-04-24T07:31:06;2.55;;;2.02;;
27847;SDS011;15212;48.830;8.730;2023-04-24T07:33:35;4.42;;;2.20;;
27847;SDS011;15212;48.830;8.730;2023-04-24T07:36:04;4.12;;;2.22;;
27847;SDS011;15212;48.830;8.730;2023-04-24T07:38:32;5.35;;;2.10;;
27847;SDS011;15212;48.830;8.730;2023-04-24T07:41:00;4.08;;;2.02;;
27847;SDS011;15212;48.830;8.730;2023-04-24T07:43:29;5.78;;;2.85;;
27847;SDS011;15212;48.830;8.730;2023-04-24T07:45:57;4.62;;;2.45;;
27847;SDS011;15212;48.830;8.730;2023-04-24T07:48:26;3.02;;;1.85;;
27847;SDS011;15212;48.830;8.730;2023-04-24T07:50:54;8.25;;;2.37;;
27847;SDS011;15212;48.830;8.730;2023-04-24T07:53:23;2.80;;;2.08;;
27847;SDS011;15212;48.830;8.730;2023-04-24T07:55:51;3.75;;;2.42;;
27847;SDS011;15212;48.830;8.730;2023-04-24T07:58:22;5.92;;;2.30;;
27847;SDS011;15212;48.830;8.730;2023-04-24T08:00:50;4.62;;;2.27;;
27847;SDS011;15212;48.830;8.730;2023-04-24T08:03:19;2.72;;;1.82;;
27847;SDS011;15212;48.830;8.730;2023-04-24T08:05:47;5.37;;;2.00;;
27847;SDS011;15212;48.830;8.730;2023-04-24T08:08:16;5.62;;;2.00;;
27847;SDS011;15212;48.830;8.730;2023-04-24T08:10:46;4.17;;;2.00;;
27847;SDS011;15212;48.830;8.730;2023-04-24T08:13:15;3.55;;;1.72;;
27847;SDS011;15212;48.830;8.730;2023-04-24T08:15:44;5.70;;;1.98;;
27847;SDS011;15212;48.830;8.730;2023-04-24T08:18:12;3.22;;;1.60;;
27847;SDS011;15212;48.830;8.730;2023-04-24T08:20:41;4.45;;;1.95;;
27847;SDS011;15212;48.830;8.730;2023-04-24T08:23:11;6.37;;;1.70;;
27847;SDS011;15212;48.830;8.730;2023-04-24T08:28:27;3.25;;;1.72;;
27847;SDS011;15212;48.830;8.730;2023-04-24T08:30:55;3.77;;;1.98;;
27847;SDS011;15212;48.830;8.730;2023-04-24T08:33:24;3.87;;;1.82;;
27847;SDS011;15212;48.830;8.730;2023-04-24T08:35:52;3.65;;;1.70;;
27847;SDS011;15212;48.830;8.730;2023-04-24T08:38:21;3.33;;;1.45;;
27847;SDS011;15212;48.830;8.730;2023-04-24T08:40:49;2.37;;;1.40;;
27847;SDS011;15212;48.830;8.730;2023-04-24T08:43:17;2.02;;;1.50;;
27847;SDS011;15212;48.830;8.730;2023-04-24T08:45:48;1.72;;;1.27;;
27847;SDS011;15212;48.830;8.730;2023-04-24T08:48:17;3.98;;;2.10;;
27847;SDS011;15212;48.830;8.730;2023-04-24T08:50:46;3.52;;;1.45;;
27847;SDS011;15212;48.830;8.730;2023-04-24T08:53:18;2.77;;;1.37;;
27847;SDS011;15212;48.830;8.730;2023-04-24T08:55:46;4.00;;;1.47;;
27847;SDS011;15212;48.830;8.730;2023-04-24T08:58:18;2.37;;;0.98;;
27847;SDS011;15212;48.830;8.730;2023-04-24T09:00:47;4.42;;;1.40;;
27847;SDS011;15212;48.830;8.730;2023-04-24T09:03:16;2.80;;;1.47;;
27847;SDS011;15212;48.830;8.730;2023-04-24T09:05:46;3.25;;;1.37;;
27847;SDS011;15212;48.830;8.730;2023-04-24T09:08:16;3.72;;;1.60;;
27847;SDS011;15212;48.830;8.730;2023-04-24T09:10:46;2.80;;;1.30;;
27847;SDS011;15212;48.830;8.730;2023-04-24T09:13:14;3.47;;;1.82;;
27847;SDS011;15212;48.830;8.730;2023-04-24T09:15:43;3.87;;;1.65;;
27847;SDS011;15212;48.830;8.730;2023-04-24T09:18:11;8.95;;;1.98;;
27847;SDS011;15212;48.830;8.730;2023-04-24T09:20:58;3.25;;;1.70;;
27847;SDS011;15212;48.830;8.730;2023-04-24T09:23:33;3.02;;;1.70;;
27847;SDS011;15212;48.830;8.730;2023-04-24T09:26:02;2.65;;;1.57;;
27847;SDS011;15212;48.830;8.730;2023-04-24T09:28:35;4.83;;;2.00;;
27847;SDS011;15212;48.830;8.730;2023-04-24T09:33:55;2.80;;;1.77;;
27847;SDS011;15212;48.830;8.730;2023-04-24T09:36:35;5.05;;;1.72;;
27847;SDS011;15212;48.830;8.730;2023-04-24T09:39:13;4.10;;;1.80;;
27847;SDS011;15212;48.830;8.730;2023-04-24T09:41:44;3.00;;;1.80;;
27847;SDS011;15212;48.830;8.730;2023-04-24T09:44:27;2.98;;;1.80;;
27847;SDS011;15212;48.830;8.730;2023-04-24T09:46:56;2.65;;;1.80;;
27847;SDS011;15212;48.830;8.730;2023-04-24T09:49:26;4.70;;;1.82;;
27847;SDS011;15212;48.830;8.730;2023-04-24T09:54:36;2.77;;;1.67;;
27847;SDS011;15212;48.830;8.730;2023-04-24T09:57:08;2.90;;;1.67;;
27847;SDS011;15212;48.830;8.730;2023-04-24T09:59:41;2.40;;;1.50;;
27847;SDS011;15212;48.830;8.730;2023-04-24T10:02:18;4.95;;;1.60;;
27847;SDS011;15212;48.830;8.730;2023-04-24T10:04:57;2.87;;;1.32;;
27847;SDS011;15212;48.830;8.730;2023-04-24T10:07:25;3.20;;;1.57;;
27847;SDS011;15212;48.830;8.730;2023-04-24T10:09:54;3.58;;;1.60;;
27847;SDS011;15212;48.830;8.730;2023-04-24T10:12:22;2.98;;;1.60;;
27847;SDS011;15212;48.830;8.730;2023-04-24T10:14:51;2.83;;;1.60;;
27847;SDS011;15212;48.830;8.730;2023-04-24T10:17:20;2.72;;;1.90;;
27847;SDS011;15212;48.830;8.730;2023-04-24T10:19:49;4.75;;;2.20;;
27847;SDS011;15212;48.830;8.730;2023-04-24T10:22:19;5.17;;;2.17;;
27847;SDS011;15212;48.830;8.730;2023-04-24T10:24:49;5.10;;;1.65;;
27847;SDS011;15212;48.830;8.730;2023-04-24T10:27:19;3.92;;;1.50;;
27847;SDS011;15212;48.830;8.730;2023-04-24T10:29:49;2.02;;;1.50;;
27847;SDS011;15212;48.830;8.730;2023-04-24T10:32:20;2.83;;;1.45;;
27847;SDS011;15212;48.830;8.730;2023-04-24T10:34:48;3.95;;;1.62;;
27847;SDS011;15212;48.830;8.730;2023-04-24T10:37:17;5.40;;;1.60;;
27847;SDS011;15212;48.830;8.730;2023-04-24T10:39:47;3.75;;;1.50;;
27847;SDS011;15212;48.830;8.730;2023-04-24T10:42:17;3.72;;;2.08;;
27847;SDS011;15212;48.830;8.730;2023-04-24T10:44:47;7.72;;;2.70;;
27847;SDS011;15212;48.830;8.730;2023-04-24T10:47:15;11.12;;;4.83;;
27847;SDS011;15212;48.830;8.730;2023-04-24T10:49:44;3.72;;;2.20;;
27847;SDS011;15212;48.830;8.730;2023-04-24T10:52:12;5.87;;;2.17;;
27847;SDS011;15212;48.830;8.730;2023-04-24T10:54:44;4.72;;;1.85;;
27847;SDS011;15212;48.830;8.730;2023-04-24T11:02:47;1.92;;;1.62;;
27847;SDS011;15212;48.830;8.730;2023-04-24T11:05:18;4.20;;;1.80;;
27847;SDS011;15212;48.830;8.730;2023-04-24T11:10:44;2.90;;;1.72;;
27847;SDS011;15212;48.830;8.730;2023-04-24T11:13:16;10.25;;;1.82;;
27847;SDS011;15212;48.830;8.730;2023-04-24T11:19:03;3.17;;;1.75;;
27847;SDS011;15212;48.830;8.730;2023-04-24T11:21:57;3.05;;;2.10;;
27847;SDS011;15212;48.830;8.730;2023-04-24T11:27:16;4.28;;;1.90;;
27847;SDS011;15212;48.830;8.730;2023-04-24T11:32:41;3.90;;;2.47;;
27847;SDS011;15212;48.830;8.730;2023-04-24T11:35:17;5.17;;;2.35;;
27847;SDS011;15212;48.830;8.730;2023-04-24T11:37:50;2.87;;;2.00;;
27847;SDS011;15212;48.830;8.730;2023-04-24T11:40:22;4.08;;;2.00;;
27847;SDS011;15212;48.830;8.730;2023-04-24T11:42:52;4.40;;;2.00;;
27847;SDS011;15212;48.830;8.730;2023-04-24T11:45:27;4.75;;;1.90;;
27847;SDS011;15212;48.830;8.730;2023-04-24T11:47:57;2.52;;;1.70;;
27847;SDS011;15212;48.830;8.730;2023-04-24T11:50:26;5.03;;;1.50;;
27847;SDS011;15212;48.830;8.730;2023-04-24T11:52:55;4.03;;;1.62;;
27847;SDS011;15212;48.830;8.730;2023-04-24T11:55:26;3.27;;;1.80;;
27847;SDS011;15212;48.830;8.730;2023-04-24T11:57:56;3.35;;;1.65;;
27847;SDS011;15212;48.830;8.730;2023-04-24T12:00:27;4.85;;;2.25;;
27847;SDS011;15212;48.830;8.730;2023-04-24T12:03:03;3.83;;;1.72;;
27847;SDS011;15212;48.830;8.730;2023-04-24T12:05:38;4.15;;;2.05;;
27847;SDS011;15212;48.830;8.730;2023-04-24T12:08:07;4.40;;;2.30;;
27847;SDS011;15212;48.830;8.730;2023-04-24T12:10:36;3.87;;;2.12;;
27847;SDS011;15212;48.830;8.730;2023-04-24T12:13:04;3.67;;;2.08;;
27847;SDS011;15212;48.830;8.730;2023-04-24T12:15:34;4.00;;;1.62;;
27847;SDS011;15212;48.830;8.730;2023-04-24T12:18:03;3.95;;;1.98;;
27847;SDS011;15212;48.830;8.730;2023-04-24T12:20:32;1.70;;;1.35;;
27847;SDS011;15212;48.830;8.730;2023-04-24T12:23:02;4.97;;;2.15;;
27847;SDS011;15212;48.830;8.730;2023-04-24T12:25:33;2.87;;;1.70;;
27847;SDS011;15212;48.830;8.730;2023-04-24T12:30:42;2.72;;;1.98;;
27847;SDS011;15212;48.830;8.730;2023-04-24T12:33:19;3.15;;;2.40;;
27847;SDS011;15212;48.830;8.730;2023-04-24T12:35:51;3.95;;;2.55;;
27847;SDS011;15212;48.830;8.730;2023-04-24T12:38:22;4.40;;;2.47;;
27847;SDS011;15212;48.830;8.730;2023-04-24T12:41:06;3.90;;;2.80;;
27847;SDS011;15212;48.830;8.730;2023-04-24T12:43:36;3.80;;;2.83;;
27847;SDS011;15212;48.830;8.730;2023-04-24T12:46:04;4.90;;;2.98;;
27847;SDS011;15212;48.830;8.730;2023-04-24T12:48:33;3.80;;;2.75;;
27847;SDS011;15212;48.830;8.730;2023-04-24T12:51:01;5.58;;;2.90;;
27847;SDS011;15212;48.830;8.730;2023-04-24T12:53:30;7.10;;;3.47;;
27847;SDS011;15212;48.830;8.730;2023-04-24T12:55:58;5.97;;;3.20;;
27847;SDS011;15212;48.830;8.730;2023-04-24T12:58:26;5.35;;;2.67;;
27847;SDS011;15212;48.830;8.730;2023-04-24T13:00:55;7.25;;;3.27;;
27847;SDS011;15212;48.830;8.730;2023-04-24T13:03:23;4.12;;;2.92;;
27847;SDS011;15212;48.830;8.730;2023-04-24T13:05:52;5.72;;;2.90;;
27847;SDS011;15212;48.830;8.730;2023-04-24T13:08:21;5.03;;;2.92;;
27847;SDS011;15212;48.830;8.730;2023-04-24T13:10:49;5.58;;;3.08;;
27847;SDS011;15212;48.830;8.730;2023-04-24T13:13:19;5.83;;;2.77;;
27847;SDS011;15212;48.830;8.730;2023-04-24T13:15:48;4.40;;;2.72;;
27847;SDS011;15212;48.830;8.730;2023-04-24T13:18:16;5.37;;;2.98;;
27847;SDS011;15212;48.830;8.730;2023-04-24T13:20:45;4.50;;;2.90;;
27847;SDS011;15212;48.830;8.730;2023-04-24T13:23:13;6.33;;;2.90;;
27847;SDS011;15212;48.830;8.730;2023-04-24T13:25:42;5.05;;;2.55;;
27847;SDS011;15212;48.830;8.730;2023-04-24T13:28:11;3.83;;;2.75;;
27847;SDS011;15212;48.830;8.730;2023-04-24T13:30:39;6.10;;;2.50;;
27847;SDS011;15212;48.830;8.730;2023-04-24T13:33:08;3.67;;;2.20;;
27847;SDS011;15212;48.830;8.730;2023-04-24T13:35:36;4.20;;;2.10;;
27847;SDS011;15212;48.830;8.730;2023-04-24T13:38:04;4.20;;;2.60;;
27847;SDS011;15212;48.830;8.730;2023-04-24T13:40:33;4.97;;;2.87;;
27847;SDS011;15212;48.830;8.730;2023-04-24T13:43:02;4.70;;;2.58;;
27847;SDS011;15212;48.830;8.730;2023-04-24T13:45:30;4.85;;;2.30;;
27847;SDS011;15212;48.830;8.730;2023-04-24T13:47:58;5.22;;;2.70;;
27847;SDS011;15212;48.830;8.730;2023-04-24T13:50:28;5.50;;;2.60;;
27847;SDS011;15212;48.830;8.730;2023-04-24T13:52:57;4.10;;;2.67;;
27847;SDS011;15212;48.830;8.730;2023-04-24T13:55:27;3.67;;;2.27;;
27847;SDS011;15212;48.830;8.730;2023-04-24T13:57:56;4.17;;;2.52;;
27847;SDS011;15212;48.830;8.730;2023-04-24T14:00:25;3.87;;;2.05;;
27847;SDS011;15212;48.830;8.730;2023-04-24T14:02:54;3.95;;;2.35;;
27847;SDS011;15212;48.830;8.730;2023-04-24T14:05:22;5.17;;;2.75;;
27847;SDS011;15212;48.830;8.730;2023-04-24T14:07:51;6.62;;;3.20;;
27847;SDS011;15212;48.830;8.730;2023-04-24T14:10:19;4.17;;;2.67;;
27847;SDS011;15212;48.830;8.730;2023-04-24T14:12:48;4.90;;;2.83;;
27847;SDS011;15212;48.830;8.730;2023-04-24T14:15:17;4.83;;;2.70;;
27847;SDS011;15212;48.830;8.730;2023-04-24T14:17:45;3.95;;;2.98;;
27847;SDS011;15212;48.830;8.730;2023-04-24T14:20:15;4.15;;;2.70;;
27847;SDS011;15212;48.830;8.730;2023-04-24T14:22:44;3.67;;;2.55;;
27847;SDS011;15212;48.830;8.730;2023-04-24T14:25:12;4.72;;;2.85;;
27847;SDS011;15212;48.830;8.730;2023-04-24T14:27:41;4.30;;;2.80;;
27847;SDS011;15212;48.830;8.730;2023-04-24T14:30:09;7.00;;;3.10;;
27847;SDS011;15212;48.830;8.730;2023-04-24T14:32:38;4.53;;;2.90;;
27847;SDS011;15212;48.830;8.730;2023-04-24T14:35:07;5.47;;;2.85;;
27847;SDS011;15212;48.830;8.730;2023-04-24T14:37:36;4.17;;;2.90;;
27847;SDS011;15212;48.830;8.730;2023-04-24T14:40:08;4.45;;;2.60;;
27847;SDS011;15212;48.830;8.730;2023-04-24T14:42:36;5.78;;;2.80;;
27847;SDS011;15212;48.830;8.730;2023-04-24T14:45:05;5.25;;;2.87;;
27847;SDS011;15212;48.830;8.730;2023-04-24T14:47:34;8.70;;;3.08;;
27847;SDS011;15212;48.830;8.730;2023-04-24T14:50:04;6.03;;;3.12;;
27847;SDS011;15212;48.830;8.730;2023-04-24T14:52:34;5.10;;;2.80;;
27847;SDS011;15212;48.830;8.730;2023-04-24T14:55:03;2.75;;;2.08;;
27847;SDS011;15212;48.830;8.730;2023-04-24T14:57:33;3.85;;;2.20;;
27847;SDS011;15212;48.830;8.730;2023-04-24T15:00:02;3.50;;;2.33;;
27847;SDS011;15212;48.830;8.730;2023-04-24T15:02:34;4.12;;;2.40;;
27847;SDS011;15212;48.830;8.730;2023-04-24T15:05:05;12.35;;;5.95;;
27847;SDS011;15212;48.830;8.730;2023-04-24T15:07:34;10.65;;;4.78;;
27847;SDS011;15212;48.830;8.730;2023-04-24T15:10:02;18.57;;;8.90;;
27847;SDS011;15212;48.830;8.730;2023-04-24T15:12:31;4.40;;;2.90;;
27847;SDS011;15212;48.830;8.730;2023-04-24T15:15:00;4.40;;;2.58;;
27847;SDS011;15212;48.830;8.730;2023-04-24T15:17:29;11.48;;;5.90;;
27847;SDS011;15212;48.830;8.730;2023-04-24T15:19:57;9.58;;;6.35;;
27847;SDS011;15212;48.830;8.730;2023-04-24T15:22:26;5.15;;;2.35;;
27847;SDS011;15212;48.830;8.730;2023-04-24T15:24:54;4.25;;;2.75;;
27847;SDS011;15212;48.830;8.730;2023-04-24T15:27:23;14.78;;;8.38;;
27847;SDS011;15212;48.830;8.730;2023-04-24T15:29:51;8.50;;;4.70;;